createdAt,value
2023-01-13T00:01:49.485Z,70.82
2023-01-13T00:04:53.133Z,70.95
2023-01-13T00:07:56.872Z,70.07
2023-01-13T00:11:00.686Z,69.31
2023-01-13T00:14:05.941Z,69.44
2023-01-13T00:17:09.703Z,69.34
2023-01-13T00:20:14.450Z,69.72
2023-01-13T00:23:18.158Z,69.84
2023-01-13T00:26:24.206Z,69.80
2023-01-13T00:29:29.242Z,69.71
2023-01-13T00:32:32.754Z,69.72
2023-01-13T00:35:36.418Z,69.65
2023-01-13T00:38:43.067Z,69.60
2023-01-13T00:42:04.311Z,69.46
2023-01-13T00:45:10.211Z,69.65
2023-01-13T00:48:13.930Z,70.02
2023-01-13T00:51:19.391Z,69.72
2023-01-13T00:54:22.967Z,69.67
2023-01-13T00:57:26.382Z,69.90
2023-01-13T01:00:31.420Z,69.05
2023-01-13T01:03:35.271Z,69.27
2023-01-13T01:06:38.981Z,69.18
2023-01-13T01:09:42.536Z,69.30
2023-01-13T01:12:46.113Z,69.31
2023-01-13T01:15:50.971Z,68.85
2023-01-13T01:18:55.770Z,69.26
2023-01-13T01:21:59.267Z,69.33
2023-01-13T01:25:02.840Z,69.16
2023-01-13T01:28:06.350Z,69.19
2023-01-13T01:31:14.199Z,69.20
2023-01-13T01:34:17.831Z,69.54
2023-01-13T01:37:21.330Z,69.72
2023-01-13T01:40:24.888Z,69.50
2023-01-13T01:44:02.782Z,69.08
2023-01-13T01:47:08.017Z,69.43
2023-01-13T01:50:12.924Z,69.12
2023-01-13T01:53:22.532Z,69.23
2023-01-13T01:56:26.059Z,69.63
2023-01-13T01:59:31.539Z,68.99
2023-01-13T02:02:37.990Z,69.15
2023-01-13T02:05:41.453Z,69.34
2023-01-13T02:08:45.440Z,69.30
2023-01-13T02:12:06.092Z,68.99
2023-01-13T02:15:13.232Z,68.86
2023-01-13T02:18:39.797Z,69.98
2023-01-13T02:22:15.676Z,69.50
2023-01-13T02:25:44.879Z,69.33
2023-01-13T02:29:25.753Z,68.65
2023-01-13T02:32:35.261Z,68.92
2023-01-13T02:35:46.268Z,69.37
2023-01-13T02:38:53.467Z,68.90
2023-01-13T02:42:21.289Z,69.32
2023-01-13T02:45:30.932Z,69.63
2023-01-13T02:48:38.864Z,68.73
2023-01-13T02:51:45.757Z,69.03
2023-01-13T02:54:56.053Z,68.90
2023-01-13T02:58:03.139Z,68.84
2023-01-13T03:01:06.994Z,68.66
2023-01-13T03:04:16.643Z,69.22
2023-01-13T03:07:50.427Z,68.44
2023-01-13T03:11:09.952Z,68.59
2023-01-13T03:14:25.283Z,68.65
2023-01-13T03:17:34.067Z,68.92
2023-01-13T03:20:45.613Z,69.58
2023-01-13T03:23:53.064Z,69.13
2023-01-13T03:27:03.785Z,69.51
2023-01-13T03:30:11.182Z,69.46
2023-01-13T03:33:19.209Z,69.30
2023-01-13T03:36:27.639Z,69.53
2023-01-13T03:39:35.885Z,69.22
2023-01-13T03:42:41.530Z,70.15
2023-01-13T03:45:48.285Z,69.53
2023-01-13T03:48:55.235Z,69.80
2023-01-13T03:52:06.966Z,71.02
2023-01-13T03:55:14.096Z,69.95
2023-01-13T03:58:21.015Z,70.14
2023-01-13T04:01:28.372Z,70.33
2023-01-13T04:04:36.589Z,70.71
2023-01-13T04:07:51.958Z,70.65
2023-01-13T04:11:02.453Z,70.77
2023-01-13T04:14:08.383Z,70.03
2023-01-13T04:17:12.580Z,70.52
2023-01-13T04:20:16.495Z,70.55
2023-01-13T04:23:23.011Z,70.08
2023-01-13T04:26:26.611Z,70.42
2023-01-13T04:29:30.406Z,70.55
2023-01-13T04:32:33.935Z,70.73
2023-01-13T04:35:38.331Z,71.28
2023-01-13T04:38:43.397Z,71.14
2023-01-13T04:42:02.886Z,71.12
2023-01-13T04:45:07.349Z,70.93
2023-01-13T04:48:11.060Z,71.03
2023-01-13T04:51:14.509Z,70.80
2023-01-13T04:54:19.540Z,70.80
2023-01-13T04:57:23.176Z,70.71
2023-01-13T05:00:26.685Z,70.85
2023-01-13T05:03:30.253Z,70.97
2023-01-13T05:06:34.074Z,71.13
2023-01-13T05:09:39.016Z,70.98
2023-01-13T05:13:00.259Z,71.08
2023-01-13T05:16:20.902Z,70.91
2023-01-13T05:19:24.542Z,70.78
2023-01-13T05:22:45.374Z,70.31
2023-01-13T05:25:51.020Z,70.52
2023-01-13T05:28:54.578Z,69.82
2023-01-13T05:31:58.173Z,70.04
2023-01-13T05:35:01.709Z,70.32
2023-01-13T05:38:05.362Z,70.77
2023-01-13T05:41:28.840Z,70.61
2023-01-13T05:44:32.542Z,70.59
2023-01-13T05:47:36.473Z,70.73
2023-01-13T05:50:40.327Z,70.59
2023-01-13T05:53:43.911Z,71.00
2023-01-13T05:56:48.980Z,70.70
2023-01-13T05:59:52.574Z,69.74
2023-01-13T06:02:56.247Z,69.66
2023-01-13T06:06:02.005Z,70.05
2023-01-13T06:09:06.526Z,69.86
2023-01-13T06:12:13.336Z,70.19
2023-01-13T06:15:17.254Z,70.44
2023-01-13T06:18:20.982Z,70.14
2023-01-13T06:21:24.753Z,69.80
2023-01-13T06:24:28.485Z,69.55
2023-01-13T06:27:33.722Z,70.03
2023-01-13T06:30:44.102Z,69.88
2023-01-13T06:33:52.136Z,69.70
2023-01-13T06:36:57.526Z,70.64
2023-01-13T06:40:04.332Z,69.98
2023-01-13T06:43:18.446Z,69.90
2023-01-13T06:46:22.191Z,69.75
2023-01-13T06:49:26.202Z,69.82
2023-01-13T06:52:30.724Z,69.14
2023-01-13T06:55:34.374Z,70.03
2023-01-13T06:58:39.523Z,70.57
2023-01-13T07:01:43.436Z,70.11
2023-01-13T07:04:47.838Z,70.01
2023-01-13T07:07:51.513Z,70.20
2023-01-13T07:10:55.601Z,71.35
2023-01-13T07:14:20.055Z,71.92
2023-01-13T07:17:25.551Z,71.61
2023-01-13T07:20:29.410Z,72.14
2023-01-13T07:23:35.545Z,71.16
2023-01-13T07:26:39.270Z,71.14
2023-01-13T07:29:44.491Z,70.74
2023-01-13T07:32:48.222Z,71.00
2023-01-13T07:35:58.117Z,71.14
2023-01-13T07:39:01.902Z,70.21
2023-01-13T07:42:23.463Z,69.82
2023-01-13T07:45:28.720Z,70.90
2023-01-13T07:48:33.877Z,71.43
2023-01-13T07:51:38.671Z,71.73
2023-01-13T07:54:42.372Z,71.64
2023-01-13T07:57:46.251Z,71.82
2023-01-13T08:00:51.712Z,71.33
2023-01-13T08:03:56.342Z,71.84
2023-01-13T08:07:00.266Z,71.20
2023-01-13T08:10:03.971Z,71.36
2023-01-13T08:13:21.319Z,72.51
2023-01-13T08:16:26.703Z,72.35
2023-01-13T08:19:30.562Z,71.99
2023-01-13T08:22:34.534Z,71.31
2023-01-13T08:25:38.262Z,70.91
2023-01-13T08:28:41.961Z,71.11
2023-01-13T08:31:47.244Z,70.62
2023-01-13T08:34:50.896Z,72.12
2023-01-13T08:37:55.113Z,74.26
2023-01-13T08:40:58.881Z,75.06
2023-01-13T08:44:02.611Z,75.55
2023-01-13T08:47:08.042Z,76.52
2023-01-13T08:50:14.871Z,76.50
2023-01-13T08:53:18.661Z,76.24
2023-01-13T08:56:22.412Z,78.92
2023-01-13T08:59:26.143Z,77.99
2023-01-13T09:02:31.280Z,77.45
2023-01-13T09:05:36.584Z,76.73
2023-01-13T09:08:40.663Z,76.34
2023-01-13T09:12:04.293Z,76.88
2023-01-13T09:15:09.186Z,75.71
2023-01-13T09:18:14.892Z,77.69
2023-01-13T09:21:20.117Z,77.41
2023-01-13T09:24:24.979Z,75.61
2023-01-13T09:27:28.752Z,74.56
2023-01-13T09:30:32.501Z,74.77
2023-01-13T09:33:55.255Z,75.30
2023-01-13T09:36:58.882Z,75.51
2023-01-13T09:40:03.227Z,73.97
2023-01-13T09:43:36.289Z,74.62
2023-01-13T09:46:47.498Z,74.84
2023-01-13T09:49:53.554Z,74.00
2023-01-13T09:52:57.721Z,75.19
2023-01-13T09:56:02.392Z,74.59
2023-01-13T09:59:06.847Z,74.30
2023-01-13T10:02:42.972Z,73.98
2023-01-13T10:05:56.782Z,74.49
2023-01-13T10:09:00.895Z,76.06
2023-01-13T10:12:24.473Z,75.18
2023-01-13T10:15:28.714Z,74.56
2023-01-13T10:18:44.844Z,74.43
2023-01-13T10:22:20.582Z,75.00
2023-01-13T10:25:34.463Z,73.91
2023-01-13T10:28:38.030Z,74.44
2023-01-13T10:31:41.783Z,73.85
2023-01-13T10:34:50.196Z,73.40
2023-01-13T10:37:58.789Z,72.49
2023-01-13T10:41:04.876Z,72.49
2023-01-13T10:44:17.275Z,71.52
2023-01-13T10:47:27.134Z,70.96
2023-01-13T10:50:31.929Z,70.02
2023-01-13T10:53:47.318Z,70.26
2023-01-13T10:57:11.453Z,69.85
2023-01-13T11:00:28.557Z,69.40
2023-01-13T11:03:41.950Z,70.06
2023-01-13T11:06:48.092Z,70.43
2023-01-13T11:10:11.725Z,70.85
2023-01-13T11:13:18.357Z,69.89
2023-01-13T11:16:22.641Z,69.66
2023-01-13T11:19:30.452Z,69.36
2023-01-13T11:22:39.554Z,69.06
2023-01-13T11:25:48.842Z,69.45
2023-01-13T11:29:01.783Z,69.52
2023-01-13T11:32:13.706Z,70.01
2023-01-13T11:35:20.032Z,69.55
2023-01-13T11:38:33.834Z,69.26
2023-01-13T11:41:45.760Z,68.56
2023-01-13T11:45:03.340Z,68.82
2023-01-13T11:48:07.751Z,68.59
2023-01-13T11:51:24.169Z,69.42
2023-01-13T11:54:46.333Z,68.80
2023-01-13T11:58:04.047Z,68.41
2023-01-13T12:01:23.167Z,68.11
2023-01-13T12:04:32.751Z,68.33
2023-01-13T12:07:45.739Z,68.82
2023-01-13T12:11:02.814Z,69.24
2023-01-13T12:14:21.402Z,68.71
2023-01-13T12:17:35.865Z,69.45
2023-01-13T12:20:48.814Z,68.44
2023-01-13T12:24:02.292Z,68.85
2023-01-13T12:27:12.685Z,67.74
2023-01-13T12:30:27.126Z,67.59
2023-01-13T12:33:46.147Z,68.06
2023-01-13T12:36:59.042Z,67.66
2023-01-13T12:40:20.960Z,67.57
2023-01-13T12:43:43.224Z,68.09
2023-01-13T12:46:56.289Z,67.92
2023-01-13T12:50:41.007Z,67.28
2023-01-13T12:53:44.831Z,67.84
2023-01-13T12:56:48.659Z,67.12
2023-01-13T13:00:15.130Z,67.01
2023-01-13T13:03:38.269Z,67.30
2023-01-13T13:06:44.704Z,68.20
2023-01-13T13:09:54.697Z,69.09
2023-01-13T13:13:19.376Z,69.00
2023-01-13T13:16:50.557Z,68.74
2023-01-13T13:19:57.159Z,68.48
2023-01-13T13:23:00.955Z,68.22
2023-01-13T13:26:16.272Z,69.21
2023-01-13T13:29:51.493Z,69.06
2023-01-13T13:33:10.981Z,69.08
2023-01-13T13:36:36.963Z,68.86
2023-01-13T13:40:06.660Z,70.11
2023-01-13T13:43:32.521Z,70.07
2023-01-13T13:46:48.757Z,70.63
2023-01-13T13:49:54.799Z,70.18
2023-01-13T13:53:05.629Z,70.33
2023-01-13T13:56:20.521Z,71.05
2023-01-13T13:59:27.092Z,71.16
2023-01-13T14:02:34.337Z,70.69
2023-01-13T14:05:39.031Z,70.72
2023-01-13T14:08:51.686Z,71.65
2023-01-13T14:12:02.061Z,71.24
2023-01-13T14:15:06.567Z,71.35
2023-01-13T14:18:15.627Z,71.72
2023-01-13T14:21:22.024Z,72.27
2023-01-13T14:24:27.485Z,72.62
2023-01-13T14:27:32.207Z,72.51
2023-01-13T14:30:36.274Z,72.20
2023-01-13T14:33:43.031Z,72.38
2023-01-13T14:36:51.253Z,72.92
2023-01-13T14:39:56.554Z,72.95
2023-01-13T14:43:01.077Z,72.75
2023-01-13T14:46:05.016Z,72.28
2023-01-13T14:49:25.139Z,72.14
2023-01-13T14:52:31.114Z,71.74
2023-01-13T14:55:38.881Z,71.73
2023-01-13T14:58:42.652Z,71.50
2023-01-13T15:01:46.444Z,71.67
2023-01-13T15:04:54.146Z,71.69
2023-01-13T15:08:01.176Z,71.99
2023-01-13T15:11:09.107Z,72.09
2023-01-13T15:14:13.161Z,72.37
2023-01-13T15:17:18.923Z,72.81
2023-01-13T15:20:24.600Z,73.02
2023-01-13T15:23:28.425Z,73.24
2023-01-13T15:26:35.190Z,73.00
2023-01-13T15:29:38.855Z,74.09
2023-01-13T15:32:42.924Z,73.24
2023-01-13T15:35:48.615Z,73.42
2023-01-13T15:38:52.535Z,73.43
2023-01-13T15:42:12.417Z,74.28
2023-01-13T15:45:33.583Z,74.10
2023-01-13T15:48:37.398Z,74.66
2023-01-13T15:51:42.043Z,74.62
2023-01-13T15:54:45.822Z,74.11
2023-01-13T15:57:52.039Z,74.28
2023-01-13T16:00:55.962Z,74.42
2023-01-13T16:03:59.860Z,74.71
2023-01-13T16:07:03.618Z,75.08
2023-01-13T16:10:16.255Z,75.46
2023-01-13T16:13:21.435Z,75.32
2023-01-13T16:16:27.438Z,74.59
2023-01-13T16:19:31.265Z,75.22
2023-01-13T16:22:35.111Z,74.96
2023-01-13T16:25:38.930Z,74.55
2023-01-13T16:28:44.115Z,75.21
2023-01-13T16:31:47.912Z,74.72
2023-01-13T16:34:51.826Z,74.47
2023-01-13T16:37:58.544Z,74.52
2023-01-13T16:41:02.210Z,74.61
2023-01-13T16:44:07.496Z,74.62
2023-01-13T16:47:15.534Z,73.86
2023-01-13T16:50:35.199Z,74.29
2023-01-13T16:53:38.954Z,74.00
2023-01-13T16:56:42.712Z,73.96
2023-01-13T16:59:48.162Z,73.89
2023-01-13T17:02:52.159Z,73.86
2023-01-13T17:05:55.959Z,73.60
2023-01-13T17:09:03.321Z,74.55
2023-01-13T17:12:07.471Z,74.40
2023-01-13T17:15:15.124Z,73.83
2023-01-13T17:18:18.853Z,74.15
2023-01-13T17:21:22.525Z,74.33
2023-01-13T17:24:26.293Z,74.73
2023-01-13T17:27:30.096Z,74.43
2023-01-13T17:30:36.496Z,74.22
2023-01-13T17:33:40.428Z,74.87
2023-01-13T17:36:44.215Z,74.93
2023-01-13T17:39:48.789Z,74.52
2023-01-13T17:42:52.555Z,75.01
2023-01-13T17:45:58.058Z,74.99
2023-01-13T17:49:01.881Z,74.41
2023-01-13T17:52:05.803Z,73.82
2023-01-13T17:55:10.323Z,74.00
2023-01-13T17:58:13.951Z,73.74
2023-01-13T18:01:21.250Z,73.99
2023-01-13T18:04:28.289Z,73.87
2023-01-13T18:07:32.112Z,74.18
2023-01-13T18:10:35.927Z,74.57
2023-01-13T18:13:40.066Z,74.86
2023-01-13T18:16:45.393Z,74.69
2023-01-13T18:20:06.318Z,75.16
2023-01-13T18:23:34.765Z,75.76
2023-01-13T18:26:56.047Z,75.73
2023-01-13T18:30:01.081Z,75.50
2023-01-13T18:33:06.366Z,76.29
2023-01-13T18:36:10.906Z,75.86
2023-01-13T18:39:14.896Z,75.60
2023-01-13T18:42:44.344Z,76.11
2023-01-13T18:45:51.882Z,75.68
2023-01-13T18:48:57.069Z,75.75
2023-01-13T18:52:00.797Z,75.45
2023-01-13T18:55:04.633Z,75.38
2023-01-13T18:58:08.215Z,75.38
2023-01-13T19:01:12.105Z,75.60
2023-01-13T19:04:18.664Z,75.92
2023-01-13T19:07:24.784Z,76.32
2023-01-13T19:10:32.016Z,75.81
2023-01-13T19:13:37.094Z,76.48
2023-01-13T19:16:41.008Z,76.63
2023-01-13T19:19:47.686Z,77.30
2023-01-13T19:22:54.581Z,77.47
2023-01-13T19:26:00.414Z,77.36
2023-01-13T19:29:04.213Z,77.57
2023-01-13T19:32:08.276Z,78.18
2023-01-13T19:35:17.619Z,77.46
2023-01-13T19:38:21.356Z,77.62
2023-01-13T19:41:42.389Z,77.79
2023-01-13T19:45:03.077Z,77.96
2023-01-13T19:48:08.631Z,78.09
2023-01-13T19:51:14.856Z,77.45
2023-01-13T19:54:18.729Z,77.34
2023-01-13T19:57:22.668Z,76.96
2023-01-13T20:00:26.768Z,76.13
2023-01-13T20:03:36.014Z,76.25
2023-01-13T20:06:41.340Z,77.21
2023-01-13T20:09:45.807Z,77.00
2023-01-13T20:12:49.698Z,77.33
2023-01-13T20:15:53.359Z,79.31
2023-01-13T20:18:57.798Z,79.17
2023-01-13T20:22:02.931Z,79.84
2023-01-13T20:25:07.767Z,80.17
2023-01-13T20:28:11.550Z,79.83
2023-01-13T20:31:16.082Z,80.37
2023-01-13T20:34:20.171Z,80.34
2023-01-13T20:37:25.335Z,80.53
2023-01-13T20:40:29.139Z,81.05
2023-01-13T20:43:31.788Z,81.06
2023-01-13T20:46:35.566Z,81.41
2023-01-13T20:49:39.438Z,81.61
2023-01-13T20:52:45.198Z,81.24
2023-01-13T20:55:48.873Z,81.46
2023-01-13T20:58:52.677Z,81.26
2023-01-13T21:01:56.463Z,81.31
2023-01-13T21:05:00.142Z,81.04
2023-01-13T21:08:05.836Z,81.83
2023-01-13T21:11:10.818Z,81.93
2023-01-13T21:14:34.203Z,82.08
2023-01-13T21:17:55.412Z,83.14
2023-01-13T21:21:11.860Z,84.79
2023-01-13T21:24:17.219Z,84.09
2023-01-13T21:27:21.409Z,84.11
2023-01-13T21:30:25.189Z,85.06
2023-01-13T21:33:30.099Z,84.16
2023-01-13T21:36:33.883Z,85.01
2023-01-13T21:39:39.090Z,85.64
2023-01-13T21:43:00.520Z,85.24
2023-01-13T21:46:21.451Z,85.99
2023-01-13T21:49:25.349Z,85.69
2023-01-13T21:52:29.474Z,85.74
2023-01-13T21:55:34.910Z,85.84
2023-01-13T21:58:40.232Z,85.43
2023-01-13T22:02:08.769Z,87.22
2023-01-13T22:05:08.975Z,86.52
2023-01-13T22:08:14.667Z,86.08
2023-01-13T22:11:19.817Z,85.00
2023-01-13T22:14:24.674Z,85.24
2023-01-13T22:17:31.849Z,86.33
2023-01-13T22:20:35.540Z,86.25
2023-01-13T22:23:39.300Z,85.88
2023-01-13T22:26:44.663Z,86.72
2023-01-13T22:29:49.541Z,86.87
2023-01-13T22:32:53.384Z,86.05
2023-01-13T22:35:57.433Z,88.39
2023-01-13T22:39:01.721Z,88.36
2023-01-13T22:42:07.807Z,88.82
2023-01-13T22:45:14.398Z,89.72
2023-01-13T22:48:18.201Z,88.66
2023-01-13T22:51:23.026Z,89.97
2023-01-13T22:54:26.863Z,90.02
2023-01-13T22:57:36.669Z,89.96
2023-01-13T23:00:50.400Z,91.20
2023-01-13T23:03:55.046Z,91.33
2023-01-13T23:07:00.167Z,91.50
2023-01-13T23:10:04.034Z,92.01
2023-01-13T23:13:10.672Z,92.11
2023-01-13T23:16:16.650Z,90.83
2023-01-13T23:19:20.404Z,91.52
2023-01-13T23:22:24.102Z,92.23
2023-01-13T23:25:27.930Z,91.27
2023-01-13T23:28:34.603Z,92.39
2023-01-13T23:31:38.391Z,93.43
2023-01-13T23:34:42.185Z,93.31
2023-01-13T23:37:45.961Z,92.50
2023-01-13T23:40:49.603Z,93.23
2023-01-13T23:43:58.228Z,92.76
2023-01-13T23:47:01.839Z,93.15
2023-01-13T23:50:05.999Z,93.71
2023-01-13T23:53:10.211Z,92.07
2023-01-13T23:56:16.043Z,91.74
2023-01-13T23:59:21.437Z,91.38
